Time;durP1;ratioP1;P1;durP2;ratioP2;P2;SDS_P1;SDS_P2;PMS_P1;PMS_P2;Temp;Humidity;BMP_temperature;BMP_pressure;BME280_temperature;BME280_humidity;BME280_pressure;Samples;Min_cycle;Max_cycle;Signal;HPM_P1;HPM_P2
2022/11/08 00:02:20;;;;;;;61.38;9.10;;;;;;;2.96;100.00;93925.16;4881603;29;20441;-53
2022/11/08 00:04:47;;;;;;;28.52;8.50;;;;;;;2.96;100.00;93920.50;4894896;29;20049;-56
2022/11/08 00:15:32;;;;;;;102.22;9.23;;;;;;;2.68;100.00;93918.19;4895307;29;20049;-56
2022/11/08 00:17:58;;;;;;;117.03;8.68;;;;;;;2.56;100.00;93916.47;4894015;29;20066;-56
2022/11/08 00:20:25;;;;;;;87.57;8.57;;;;;;;2.49;100.00;93913.63;4894947;29;20061;-55
2022/11/08 00:22:52;;;;;;;109.95;10.15;;;;;;;2.48;100.00;93908.59;4880614;29;20112;-54
2022/11/08 00:25:18;;;;;;;87.23;8.63;;;;;;;2.54;100.00;93910.63;4847715;29;20449;-53
2022/11/08 00:27:45;;;;;;;58.22;8.75;;;;;;;2.57;100.00;93907.16;4876109;29;20045;-52
2022/11/08 00:30:12;;;;;;;48.05;8.90;;;;;;;2.63;100.00;93904.16;4876487;29;20057;-56
2022/11/08 00:32:38;;;;;;;75.15;8.48;;;;;;;2.60;100.00;93905.69;4876129;29;20052;-53
2022/11/08 00:35:05;;;;;;;27.25;7.78;;;;;;;2.69;100.00;93908.13;4876427;29;20057;-55
2022/11/08 00:37:32;;;;;;;107.40;8.47;;;;;;;2.67;100.00;93907.69;4843686;29;20049;-50
2022/11/08 00:39:59;;;;;;;52.42;7.72;;;;;;;2.58;100.00;93903.31;4884909;29;20044;-53
2022/11/08 00:42:25;;;;;;;51.53;7.35;;;;;;;2.58;100.00;93903.31;4893451;29;20044;-53
2022/11/08 00:44:52;;;;;;;40.60;7.95;;;;;;;2.63;100.00;93902.22;4877557;29;20049;-55
2022/11/08 00:47:19;;;;;;;26.70;7.47;;;;;;;2.63;100.00;93899.50;4894568;29;20059;-53
2022/11/08 00:49:45;;;;;;;27.43;7.43;;;;;;;2.71;100.00;93900.41;4893883;29;20060;-55
2022/11/08 00:52:12;;;;;;;30.88;6.93;;;;;;;2.69;100.00;93900.75;4894358;29;20112;-55
2022/11/08 00:54:39;;;;;;;29.10;7.22;;;;;;;2.71;100.00;93897.69;4893889;29;20044;-54
2022/11/08 00:57:06;;;;;;;21.23;7.50;;;;;;;2.71;100.00;93895.75;4877427;29;20032;-57
2022/11/08 00:59:32;;;;;;;26.08;7.05;;;;;;;2.72;100.00;93899.28;4893486;29;20080;-55
2022/11/08 01:01:59;;;;;;;56.93;18.10;;;;;;;2.77;100.00;93904.38;4877488;29;20103;-56
2022/11/08 01:04:26;;;;;;;29.55;8.90;;;;;;;2.68;100.00;93898.44;4877690;29;20517;-53
2022/11/08 01:06:52;;;;;;;109.00;8.43;;;;;;;2.45;100.00;93891.13;4893832;29;20075;-54
2022/11/08 01:09:19;;;;;;;110.97;7.97;;;;;;;2.45;100.00;93891.13;4893648;29;20498;-54
2022/11/08 01:11:46;;;;;;;28.02;7.45;;;;;;;2.45;100.00;93890.34;4893448;29;20052;-56
2022/11/08 01:14:13;;;;;;;55.90;7.53;;;;;;;2.42;100.00;93894.56;4893645;29;20053;-53
2022/11/08 01:16:41;;;;;;;55.25;7.63;;;;;;;2.46;100.00;93879.16;4893391;29;20063;-51
2022/11/08 01:19:08;;;;;;;45.80;7.43;;;;;;;2.35;100.00;93883.63;4893808;29;20076;-52
2022/11/08 01:21:35;;;;;;;41.17;7.53;;;;;;;2.25;100.00;93881.53;4893427;29;20091;-50
2022/11/08 01:24:02;;;;;;;34.58;7.00;;;;;;;2.25;100.00;93885.00;4893790;29;20052;-53
2022/11/08 01:26:29;;;;;;;149.87;60.03;;;;;;;2.34;100.00;93874.72;4877327;29;20524;-52
2022/11/08 01:28:56;;;;;;;59.13;12.38;;;;;;;2.40;100.00;93877.91;4892933;29;20051;-53
2022/11/08 01:31:29;;;;;;;138.10;11.07;;;;;;;2.28;100.00;93873.47;4881657;29;20498;-49
2022/11/08 01:33:57;;;;;;;81.85;8.52;;;;;;;2.29;100.00;93869.59;4892914;29;20048;-50
2022/11/08 01:36:25;;;;;;;67.07;8.35;;;;;;;2.26;100.00;93866.88;4893954;29;20055;-54
2022/11/08 01:38:54;;;;;;;81.00;8.80;;;;;;;2.22;100.00;93864.09;4893096;29;20055;-48
2022/11/08 01:41:23;;;;;;;97.22;8.65;;;;;;;2.12;100.00;93859.31;4893309;29;20051;-52
2022/11/08 01:43:51;;;;;;;42.90;8.50;;;;;;;2.16;100.00;93868.25;4893136;29;20051;-51
2022/11/08 01:46:18;;;;;;;104.22;9.50;;;;;;;2.26;100.00;93851.41;4893522;29;20057;-49
2022/11/08 01:48:56;;;;;;;63.25;8.68;;;;;;;2.34;100.00;93853.06;4893147;29;20059;-52
2022/11/08 01:51:44;;;;;;;39.23;8.70;;;;;;;2.36;100.00;93858.13;4893536;29;20083;-51
2022/11/08 01:54:19;;;;;;;41.83;8.52;;;;;;;2.31;100.00;93855.72;4892345;29;20349;-53
2022/11/08 01:56:46;;;;;;;30.95;8.95;;;;;;;2.29;100.00;93849.88;4893074;29;20068;-48
2022/11/08 01:59:15;;;;;;;109.30;9.02;;;;;;;2.23;100.00;93856.75;4893039;29;20052;-53
2022/11/08 02:01:43;;;;;;;63.33;8.73;;;;;;;2.25;100.00;93844.41;4892952;29;20056;-53
2022/11/08 02:04:12;;;;;;;116.93;8.57;;;;;;;2.02;100.00;93844.44;4891970;29;20036;-49
2022/11/08 02:06:41;;;;;;;76.60;6.60;;;;;;;2.06;100.00;93845.28;4891474;29;20052;-51
2022/11/08 02:09:09;;;;;;;42.25;6.80;;;;;;;2.08;100.00;93836.81;4891807;29;20055;-49
2022/11/08 02:11:38;;;;;;;91.63;6.53;;;;;;;2.08;100.00;93839.53;4892252;29;20486;-50
2022/11/08 02:14:05;;;;;;;68.20;7.10;;;;;;;2.01;100.00;93840.16;4892923;29;20040;-51
2022/11/08 02:16:31;;;;;;;69.30;7.00;;;;;;;2.07;100.00;93830.59;4891658;29;20049;-50
2022/11/08 02:18:58;;;;;;;32.22;7.38;;;;;;;1.96;100.00;93824.25;4893290;29;20123;-49
2022/11/08 02:21:33;;;;;;;108.57;8.18;;;;;;;1.92;100.00;93815.28;4893233;29;20507;-49
2022/11/08 02:24:08;;;;;;;85.03;7.20;;;;;;;1.97;100.00;93818.47;4891964;29;20707;-55
2022/11/08 02:26:36;;;;;;;126.53;8.85;;;;;;;2.01;100.00;93813.09;4893043;29;20446;-51
2022/11/08 02:29:41;;;;;;;100.70;7.83;;;;;;;1.87;100.00;93807.47;4892847;29;20052;-49
2022/11/08 02:32:10;;;;;;;67.53;7.50;;;;;;;1.84;100.00;93808.22;4901625;29;20179;-50
2022/11/08 02:34:44;;;;;;;119.38;7.80;;;;;;;1.88;100.00;93804.41;4908631;29;20048;-50
2022/11/08 02:37:14;;;;;;;30.98;7.00;;;;;;;1.94;100.00;93799.47;4906671;29;20502;-49
2022/11/08 02:39:41;;;;;;;81.25;7.45;;;;;;;2.01;100.00;93796.88;4885516;29;20049;-50
2022/11/08 02:42:15;;;;;;;130.90;9.30;;;;;;;1.88;100.00;93799.00;4874207;29;20069;-50
2022/11/08 02:44:42;;;;;;;67.50;9.73;;;;;;;2.01;100.00;93791.44;4874036;29;20045;-53
2022/11/08 02:47:08;;;;;;;145.93;8.10;;;;;;;1.86;100.00;93785.06;4874004;29;20041;-51
2022/11/08 02:49:36;;;;;;;70.90;7.88;;;;;;;1.80;100.00;93792.69;4873654;29;20053;-47
2022/11/08 02:52:03;;;;;;;65.35;7.38;;;;;;;1.82;100.00;93795.03;4872751;29;20113;-49
2022/11/08 02:54:30;;;;;;;61.50;7.60;;;;;;;1.86;100.00;93792.41;4873907;29;20576;-51
2022/11/08 02:56:56;;;;;;;41.70;7.90;;;;;;;1.96;100.00;93789.84;4874309;29;20117;-52
2022/11/08 02:59:23;;;;;;;92.15;7.80;;;;;;;1.81;100.00;93788.06;4872640;29;20052;-53
2022/11/08 03:01:49;;;;;;;75.50;7.28;;;;;;;1.66;100.00;93788.97;4873817;29;20534;-51
2022/11/08 03:04:16;;;;;;;89.03;8.85;;;;;;;1.64;100.00;93792.03;4873778;29;20049;-49
2022/11/08 03:06:43;;;;;;;67.37;7.13;;;;;;;1.56;100.00;93787.66;4873779;29;20096;-54
2022/11/08 03:09:10;;;;;;;39.15;7.75;;;;;;;1.58;100.00;93793.50;4872502;29;20060;-52
2022/11/08 03:11:36;;;;;;;64.57;7.68;;;;;;;1.67;100.00;93790.53;4873508;29;20049;-48
2022/11/08 03:14:03;;;;;;;106.18;8.70;;;;;;;1.63;100.00;93789.69;4873786;29;20051;-54
2022/11/08 03:16:30;;;;;;;178.15;10.18;;;;;;;1.51;100.00;93799.56;4873581;29;20562;-49
2022/11/08 03:18:57;;;;;;;53.97;7.20;;;;;;;1.69;100.00;93783.63;4874170;29;20051;-53
2022/11/08 03:21:23;;;;;;;24.02;7.15;;;;;;;1.74;100.00;93783.31;4873663;29;20108;-51
2022/11/08 03:23:50;;;;;;;37.40;7.63;;;;;;;1.83;100.00;93790.41;4876383;29;20049;-51
2022/11/08 03:26:17;;;;;;;64.43;6.70;;;;;;;1.78;100.00;93791.50;4875904;29;20422;-52
2022/11/08 03:28:43;;;;;;;54.45;6.65;;;;;;;1.55;100.00;93788.78;4875600;29;20049;-51
2022/11/08 03:31:10;;;;;;;62.07;6.67;;;;;;;1.48;100.00;93788.69;4875428;29;20053;-52
2022/11/08 03:33:37;;;;;;;42.60;6.28;;;;;;;1.52;100.00;93794.94;4875571;29;20057;-54
2022/11/08 03:36:04;;;;;;;64.70;6.85;;;;;;;1.36;100.00;93797.75;4877162;29;20045;-58
2022/11/08 03:38:30;;;;;;;115.45;7.28;;;;;;;1.46;100.00;93797.16;4876641;29;20056;-52
2022/11/08 03:40:57;;;;;;;300.48;12.88;;;;;;;1.27;100.00;93797.19;4894023;29;20048;-50
2022/11/08 03:43:25;;;;;;;86.30;6.30;;;;;;;1.24;100.00;93792.53;4894486;29;20119;-50
2022/11/08 03:45:52;;;;;;;94.95;6.85;;;;;;;1.28;100.00;93787.97;4895382;29;20051;-50
2022/11/08 03:48:18;;;;;;;304.80;11.93;;;;;;;1.19;100.00;93791.69;4895200;29;20080;-51
2022/11/08 03:50:46;;;;;;;71.22;7.65;;;;;;;1.07;100.00;93791.06;4895016;29;20060;-54
2022/11/08 03:53:12;;;;;;;34.33;6.30;;;;;;;1.11;100.00;93789.22;4879239;29;20108;-51
2022/11/08 03:55:39;;;;;;;40.90;6.00;;;;;;;1.15;100.00;93787.34;4875881;29;20552;-53
2022/11/08 03:58:06;;;;;;;41.33;8.65;;;;;;;1.18;100.00;93797.44;4875234;29;20052;-53
2022/11/08 04:00:32;;;;;;;52.85;5.60;;;;;;;1.07;100.00;93794.53;4876310;29;20124;-54
2022/11/08 04:03:01;;;;;;;186.10;8.18;;;;;;;1.02;100.00;93791.34;4874753;29;20400;-51
2022/11/08 04:05:31;;;;;;;40.38;6.40;;;;;;;1.08;100.00;93796.09;4876496;29;20057;-51
2022/11/08 04:07:59;;;;;;;54.90;6.10;;;;;;;0.99;100.00;93790.94;4874561;29;20719;-52
2022/11/08 04:10:26;;;;;;;90.53;6.10;;;;;;;1.06;100.00;93787.56;4876418;29;20257;-52
2022/11/08 04:15:38;;;;;;;20.25;5.47;;;;;;;1.19;100.00;93783.56;4876098;29;20059;-55
2022/11/08 04:23:36;;;;;;;30.02;5.65;;;;;;;1.24;100.00;93777.06;4875896;29;20238;-54
2022/11/08 04:26:07;;;;;;;38.92;5.53;;;;;;;1.14;100.00;93781.16;4876548;29;20041;-56
2022/11/08 04:28:36;;;;;;;28.60;5.80;;;;;;;1.18;100.00;93781.22;4875873;29;20049;-53
2022/11/08 04:31:06;;;;;;;79.22;6.72;;;;;;;1.04;100.00;93779.03;4875808;29;20055;-54
2022/11/08 04:33:32;;;;;;;42.80;6.87;;;;;;;0.93;100.00;93789.66;4858786;29;20104;-54
2022/11/08 04:36:02;;;;;;;49.22;6.20;;;;;;;0.90;100.00;93781.47;4874567;29;20045;-53
2022/11/08 04:38:30;;;;;;;35.90;6.10;;;;;;;0.98;100.00;93785.88;4875802;29;20049;-53
2022/11/08 04:41:01;;;;;;;30.42;5.97;;;;;;;1.00;100.00;93780.88;4891478;29;20755;-54
2022/11/08 04:43:29;;;;;;;53.28;6.80;;;;;;;1.10;100.00;93776.81;4894388;29;20044;-50
2022/11/08 04:46:07;;;;;;;23.50;5.50;;;;;;;1.12;100.00;93774.53;4893802;29;20652;-54
2022/11/08 04:48:34;;;;;;;40.88;6.57;;;;;;;1.13;100.00;93770.72;4894183;29;20060;-51
2022/11/08 04:51:07;;;;;;;52.58;5.68;;;;;;;1.11;100.00;93764.88;4877765;29;20052;-52
2022/11/08 04:53:33;;;;;;;36.72;5.63;;;;;;;1.06;100.00;93771.34;4893991;29;20139;-51
2022/11/08 04:56:07;;;;;;;26.27;5.95;;;;;;;1.14;100.00;93769.56;4893175;29;20045;-50
2022/11/08 04:58:40;;;;;;;41.03;6.00;;;;;;;1.07;100.00;93769.44;4893726;29;20053;-49
2022/11/08 05:01:09;;;;;;;59.35;6.32;;;;;;;0.97;100.00;93777.00;4894221;29;20056;-50
2022/11/08 05:03:36;;;;;;;48.58;6.40;;;;;;;0.95;100.00;93773.09;4893647;29;20055;-52
2022/11/08 05:06:05;;;;;;;41.67;6.55;;;;;;;1.11;100.00;93760.25;4894280;29;20115;-50
2022/11/08 05:08:32;;;;;;;53.20;7.35;;;;;;;1.15;100.00;93760.31;4876575;29;20099;-51
2022/11/08 05:11:12;;;;;;;21.17;7.50;;;;;;;1.28;100.00;93763.63;4893925;29;20055;-52
2022/11/08 05:13:39;;;;;;;29.23;9.18;;;;;;;1.37;100.00;93769.59;4876816;29;20036;-54
2022/11/08 05:16:14;;;;;;;28.67;9.82;;;;;;;1.43;100.00;93767.34;4892561;29;20103;-52
2022/11/08 05:18:41;;;;;;;82.88;23.67;;;;;;;1.44;100.00;93756.16;4893227;29;20494;-50
2022/11/08 05:23:57;;;;;;;82.27;31.73;;;;;;;1.34;100.00;93762.19;4893123;29;20676;-51
2022/11/08 05:26:25;;;;;;;64.53;17.90;;;;;;;1.41;100.00;93762.31;4893652;29;20095;-51
2022/11/08 05:28:52;;;;;;;49.45;11.50;;;;;;;1.41;100.00;93762.31;4892846;29;20433;-52
2022/11/08 05:31:18;;;;;;;42.08;14.55;;;;;;;1.32;100.00;93764.47;4893199;29;20086;-51
2022/11/08 05:33:45;;;;;;;35.95;9.18;;;;;;;1.11;100.00;93757.56;4876405;29;20111;-54
2022/11/08 05:36:14;;;;;;;51.47;10.00;;;;;;;0.93;100.00;93754.53;4893409;29;20048;-52
2022/11/08 05:38:42;;;;;;;70.70;20.33;;;;;;;1.07;100.00;93755.94;4893043;29;20063;-51
2022/11/08 05:41:14;;;;;;;58.72;20.38;;;;;;;1.04;100.00;93756.63;4875178;29;20052;-55
2022/11/08 05:43:42;;;;;;;59.28;12.82;;;;;;;1.11;100.00;93748.66;4874114;29;20045;-47
2022/11/08 05:46:08;;;;;;;72.47;11.07;;;;;;;0.96;100.00;93753.03;4857286;29;20045;-50
2022/11/08 05:48:35;;;;;;;49.00;9.77;;;;;;;0.81;100.00;93749.28;4874133;29;20049;-51
2022/11/08 05:51:02;;;;;;;63.63;10.95;;;;;;;0.76;100.00;93747.63;4874532;29;20429;-49
2022/11/08 05:53:29;;;;;;;59.08;14.88;;;;;;;0.83;100.00;93747.00;4874170;29;20045;-50
2022/11/08 05:55:58;;;;;;;58.50;11.27;;;;;;;0.83;100.00;93740.84;4856990;29;20051;-52
2022/11/08 05:58:25;;;;;;;61.00;14.95;;;;;;;0.80;100.00;93734.22;4857683;29;20056;-50
2022/11/08 06:01:10;;;;;;;37.30;11.83;;;;;;;0.88;100.00;93729.72;4873361;29;20051;-53
2022/11/08 06:03:37;;;;;;;41.42;12.52;;;;;;;0.95;100.00;93729.84;4874337;29;20053;-50
2022/11/08 06:06:06;;;;;;;35.72;11.32;;;;;;;0.92;100.00;93725.94;4857967;29;20053;-54
2022/11/08 06:08:34;;;;;;;32.67;8.63;;;;;;;0.84;100.00;93720.78;4873732;29;20087;-53
2022/11/08 06:11:06;;;;;;;49.90;14.38;;;;;;;0.81;100.00;93724.97;4873584;29;20057;-53
2022/11/08 06:13:33;;;;;;;35.40;11.23;;;;;;;0.78;100.00;93726.44;4874057;29;20140;-53
2022/11/08 06:16:05;;;;;;;62.42;15.43;;;;;;;0.85;100.00;93731.22;4874151;29;20040;-54
2022/11/08 06:18:33;;;;;;;39.13;9.57;;;;;;;0.85;100.00;93727.75;4856905;29;20063;-52
2022/11/08 06:21:00;;;;;;;78.72;11.45;;;;;;;0.84;100.00;93734.28;4873801;29;20069;-55
2022/11/08 06:23:27;;;;;;;34.35;10.02;;;;;;;0.84;100.00;93729.66;4874048;29;20100;-56
2022/11/08 06:25:54;;;;;;;68.43;9.87;;;;;;;0.84;100.00;93729.66;4874089;29;20049;-55
2022/11/08 06:28:21;;;;;;;36.70;10.90;;;;;;;0.86;100.00;93732.00;4874057;29;20081;-56
2022/11/08 06:30:49;;;;;;;29.40;7.90;;;;;;;0.81;100.00;93726.91;4873563;29;20071;-53
2022/11/08 06:33:16;;;;;;;27.33;7.88;;;;;;;0.95;100.00;93732.56;4873904;29;20049;-54
2022/11/08 06:35:43;;;;;;;30.45;8.77;;;;;;;1.00;100.00;93737.66;4873929;29;20394;-52
2022/11/08 06:38:10;;;;;;;28.00;9.80;;;;;;;1.13;100.00;93736.34;4874426;29;20114;-54
2022/11/08 06:40:38;;;;;;;21.90;8.30;;;;;;;1.28;100.00;93731.19;4887423;29;20056;-53
2022/11/08 06:43:05;;;;;;;23.80;7.65;;;;;;;1.36;100.00;93735.56;4892517;29;20552;-54
2022/11/08 06:45:32;;;;;;;64.78;9.40;;;;;;;1.06;100.00;93738.91;4875080;29;20092;-53
2022/11/08 06:48:00;;;;;;;39.80;9.07;;;;;;;1.08;100.00;93738.56;4892850;29;20057;-55
2022/11/08 06:50:29;;;;;;;26.37;9.30;;;;;;;1.28;100.00;93726.56;4892561;29;20060;-56
2022/11/08 06:52:56;;;;;;;39.60;10.02;;;;;;;1.18;100.00;93721.75;4875239;29;20048;-52
2022/11/08 06:55:23;;;;;;;24.02;9.57;;;;;;;1.50;100.00;93729.63;4892387;29;20059;-52
2022/11/08 06:57:50;;;;;;;54.00;11.23;;;;;;;1.39;100.00;93724.03;4875818;29;20538;-49
2022/11/08 07:00:17;;;;;;;44.92;10.23;;;;;;;1.59;100.00;93722.81;4895785;29;20055;-54
2022/11/08 07:02:44;;;;;;;35.90;10.63;;;;;;;1.55;100.00;93727.38;4895643;29;20100;-50
2022/11/08 07:05:11;;;;;;;62.95;10.82;;;;;;;1.66;100.00;93732.19;4896083;29;20044;-52
2022/11/08 07:07:38;;;;;;;56.60;11.93;;;;;;;1.64;100.00;93729.84;4895230;29;20055;-51
2022/11/08 07:10:05;;;;;;;60.72;11.88;;;;;;;1.76;100.00;93735.03;4896266;29;20556;-55
2022/11/08 07:12:32;;;;;;;45.10;12.27;;;;;;;1.77;100.00;93742.03;4895584;29;20462;-52
2022/11/08 07:14:58;;;;;;;37.80;11.60;;;;;;;1.87;100.00;93740.63;4879524;29;20048;-51
2022/11/08 07:17:25;;;;;;;29.95;11.20;;;;;;;1.87;100.00;93746.03;4895211;29;20056;-54
2022/11/08 07:19:52;;;;;;;31.25;11.05;;;;;;;1.92;100.00;93755.75;4895721;29;20040;-52
2022/11/08 07:22:18;;;;;;;27.90;9.55;;;;;;;1.86;100.00;93757.22;4878817;29;20044;-52
2022/11/08 07:24:45;;;;;;;22.55;10.20;;;;;;;1.89;100.00;93759.97;4895291;29;20052;-48
2022/11/08 07:27:11;;;;;;;27.97;9.70;;;;;;;1.82;100.00;93765.28;4879331;29;20072;-51
2022/11/08 07:29:39;;;;;;;29.92;9.65;;;;;;;1.90;100.00;93752.63;4895092;29;20107;-53
2022/11/08 07:32:05;;;;;;;26.33;10.60;;;;;;;1.92;100.00;93753.06;4895840;29;20040;-50
2022/11/08 07:34:32;;;;;;;30.80;9.52;;;;;;;2.97;100.00;93753.22;4894816;29;20055;-52
2022/11/08 07:36:59;;;;;;;23.83;9.93;;;;;;;4.72;100.00;93753.75;4879166;29;20075;-53
2022/11/08 07:39:25;;;;;;;20.57;8.50;;;;;;;6.19;92.10;93747.78;4890260;29;20473;-55
2022/11/08 07:41:52;;;;;;;22.83;7.45;;;;;;;5.26;89.81;93750.44;4876532;29;20049;-53
2022/11/08 07:44:18;;;;;;;18.88;7.55;;;;;;;4.97;90.10;93753.06;4876899;29;20510;-57
2022/11/08 07:46:45;;;;;;;16.77;7.45;;;;;;;5.39;88.82;93752.41;4876445;29;20049;-52
2022/11/08 07:49:12;;;;;;;14.95;7.40;;;;;;;6.14;84.96;93750.91;4876814;29;20458;-53
2022/11/08 07:51:39;;;;;;;13.43;7.10;;;;;;;5.68;85.74;93757.09;4867093;29;20113;-52
2022/11/08 07:54:05;;;;;;;15.00;7.47;;;;;;;6.10;86.43;93752.84;4867217;29;20041;-51
2022/11/08 07:56:32;;;;;;;13.93;7.22;;;;;;;6.18;82.97;93757.13;4866729;29;20063;-54
2022/11/08 07:58:59;;;;;;;15.07;7.10;;;;;;;5.29;86.83;93752.38;4863219;29;20049;-50
2022/11/08 08:01:25;;;;;;;14.35;7.43;;;;;;;4.74;90.30;93764.25;4857382;29;20041;-55
2022/11/08 08:03:54;;;;;;;14.70;7.17;;;;;;;4.99;90.91;93765.13;4807531;29;20313;-53
2022/11/08 08:06:22;;;;;;;15.77;8.00;;;;;;;4.79;92.13;93774.75;4851448;29;20054;-54
2022/11/08 08:08:49;;;;;;;15.63;7.28;;;;;;;4.14;93.91;93782.53;4839845;29;20456;-50
2022/11/08 08:11:16;;;;;;;14.40;6.72;;;;;;;3.65;97.91;93793.78;4856994;29;20053;-55
2022/11/08 08:13:42;;;;;;;16.13;7.65;;;;;;;3.74;99.44;93786.09;4857188;29;20053;-52
2022/11/08 08:16:09;;;;;;;18.70;7.73;;;;;;;3.63;99.79;93782.53;4858322;29;20049;-51
2022/11/08 08:18:36;;;;;;;18.48;8.65;;;;;;;3.65;100.00;93781.00;4857264;29;20079;-55
2022/11/08 08:21:02;;;;;;;19.38;8.98;;;;;;;3.75;100.00;93804.75;4857469;29;20578;-53
2022/11/08 08:23:29;;;;;;;20.88;9.30;;;;;;;4.35;98.90;93790.06;4857563;29;20064;-53
2022/11/08 08:25:55;;;;;;;22.33;9.32;;;;;;;4.26;97.71;93786.09;4840391;29;20084;-52
2022/11/08 08:28:22;;;;;;;23.60;10.40;;;;;;;4.26;97.95;93777.97;4857648;29;20063;-54
2022/11/08 08:30:49;;;;;;;24.48;10.18;;;;;;;4.54;97.59;93793.66;4856873;29;20060;-52
2022/11/08 08:33:16;;;;;;;26.15;12.55;;;;;;;6.08;91.61;93785.16;4857793;29;20072;-51
2022/11/08 08:36:00;;;;;;;23.10;10.32;;;;;;;8.44;84.02;93786.00;4842537;29;20672;-50
2022/11/08 08:38:28;;;;;;;21.38;10.75;;;;;;;9.59;70.64;93771.75;4857283;29;20050;-51
2022/11/08 08:40:54;;;;;;;17.60;8.97;;;;;;;10.36;70.38;93777.69;4889906;29;20565;-50
2022/11/08 08:43:21;;;;;;;18.83;8.95;;;;;;;10.28;70.12;93782.50;4894766;29;20056;-53
2022/11/08 08:45:48;;;;;;;17.70;8.50;;;;;;;10.53;67.73;93779.38;4894181;29;20048;-51
2022/11/08 08:48:15;;;;;;;16.48;8.30;;;;;;;10.70;67.13;93768.47;4894394;29;20119;-54
2022/11/08 08:50:42;;;;;;;16.80;8.38;;;;;;;10.70;67.22;93780.22;4893821;29;20111;-53
2022/11/08 08:53:09;;;;;;;16.00;7.80;;;;;;;11.46;66.98;93771.31;4894516;29;20048;-54
2022/11/08 08:55:38;;;;;;;16.45;8.10;;;;;;;12.32;64.08;93760.41;4893865;29;20056;-55
2022/11/08 08:58:04;;;;;;;15.32;8.00;;;;;;;13.27;63.50;93776.81;4894534;29;20491;-49
2022/11/08 09:00:31;;;;;;;17.02;8.98;;;;;;;13.97;60.10;93772.44;4893564;29;20049;-54
2022/11/08 09:03:18;;;;;;;17.67;8.20;;;;;;;15.54;53.44;93783.00;4894338;29;20045;-54
2022/11/08 09:05:46;;;;;;;14.43;8.33;;;;;;;15.82;54.33;93782.44;4877372;29;20051;-57
2022/11/08 09:08:13;;;;;;;16.10;9.20;;;;;;;16.36;53.31;93786.69;4894359;29;20123;-54
2022/11/08 09:10:40;;;;;;;15.93;7.78;;;;;;;18.93;48.49;93776.53;4893341;29;20322;-54
2022/11/08 09:13:07;;;;;;;12.55;7.57;;;;;;;19.58;45.97;93778.81;4894054;29;20048;-57
2022/11/08 09:15:34;;;;;;;12.45;7.13;;;;;;;19.58;45.44;93778.03;4893570;29;20220;-58
2022/11/08 09:18:01;;;;;;;9.57;5.67;;;;;;;20.58;42.05;93778.22;4893868;29;20040;-55
2022/11/08 09:20:28;;;;;;;11.15;6.07;;;;;;;16.99;48.43;93775.47;4893858;29;20712;-53
2022/11/08 09:23:00;;;;;;;11.63;6.05;;;;;;;15.42;53.73;93777.56;4893068;29;20679;-53
2022/11/08 09:25:27;;;;;;;11.20;5.93;;;;;;;14.53;55.92;93785.66;4893927;29;20048;-53
2022/11/08 09:27:54;;;;;;;9.50;5.40;;;;;;;12.99;61.20;93787.41;4893523;29;20059;-54
2022/11/08 09:30:21;;;;;;;9.60;5.13;;;;;;;12.85;61.63;93794.03;4893732;29;20044;-52
2022/11/08 09:32:47;;;;;;;9.77;4.90;;;;;;;12.01;64.85;93796.47;4893281;29;20142;-52
2022/11/08 09:35:29;;;;;;;8.35;5.10;;;;;;;11.20;67.02;93795.00;4893152;29;20053;-51
2022/11/08 09:37:57;;;;;;;10.30;5.40;;;;;;;10.72;69.54;93799.03;4877362;29;20049;-55
2022/11/08 09:40:50;;;;;;;9.05;4.97;;;;;;;10.50;71.13;93804.91;4881185;29;20049;-50
2022/11/08 09:43:38;;;;;;;9.47;5.33;;;;;;;10.13;73.56;93803.88;4874385;29;20634;-55
2022/11/08 09:46:10;;;;;;;10.45;5.43;;;;;;;10.08;73.71;93807.09;4874309;29;21615;-50
2022/11/08 09:48:41;;;;;;;12.30;5.50;;;;;;;10.28;73.57;93796.22;4874189;29;20049;-53
2022/11/08 09:51:13;;;;;;;9.80;5.10;;;;;;;10.56;72.63;93792.25;4875113;29;20108;-56
2022/11/08 09:53:48;;;;;;;10.05;5.45;;;;;;;10.90;72.26;93793.22;4874311;29;20052;-56
2022/11/08 09:56:22;;;;;;;9.53;5.00;;;;;;;11.20;70.69;93790.28;4874891;29;20100;-54
2022/11/08 09:59:03;;;;;;;8.85;4.80;;;;;;;11.16;71.15;93791.56;4873950;29;20041;-53
2022/11/08 10:01:32;;;;;;;9.65;5.10;;;;;;;11.46;70.00;93796.06;4874075;29;20060;-54
2022/11/08 10:04:05;;;;;;;9.23;5.22;;;;;;;11.80;69.50;93792.97;4858479;29;20104;-53
2022/11/08 10:07:06;;;;;;;9.30;4.82;;;;;;;11.60;69.33;93794.97;4857763;29;20395;-51
2022/11/08 10:09:59;;;;;;;10.90;4.47;;;;;;;11.89;68.16;93797.13;4874058;29;20049;-55
2022/11/08 10:13:03;;;;;;;8.32;4.25;;;;;;;11.92;68.31;93791.56;4874594;29;20459;-55
2022/11/08 10:15:50;;;;;;;7.50;4.22;;;;;;;11.60;69.48;93795.75;4873241;29;20610;-50
2022/11/08 10:18:35;;;;;;;8.20;4.35;;;;;;;12.27;67.58;93789.19;4874619;29;20067;-51
2022/11/08 10:21:16;;;;;;;8.02;4.40;;;;;;;12.28;66.60;93789.97;4873934;29;20178;-53
2022/11/08 10:24:24;;;;;;;7.43;4.23;;;;;;;12.12;67.11;93793.47;4857616;29;20127;-51
2022/11/08 10:26:53;;;;;;;8.18;4.90;;;;;;;12.49;66.14;93794.19;4834037;29;20049;-55
2022/11/08 10:29:25;;;;;;;9.13;4.20;;;;;;;13.24;64.04;93777.66;4869128;29;20108;-56
2022/11/08 10:32:00;;;;;;;9.65;4.15;;;;;;;12.95;64.07;93792.22;4856788;29;20055;-53
2022/11/08 10:34:38;;;;;;;8.32;4.22;;;;;;;15.30;58.18;93781.91;4878725;29;20057;-53
2022/11/08 10:37:10;;;;;;;7.80;3.97;;;;;;;17.36;51.15;93779.78;4877516;29;20862;-53
2022/11/08 10:40:00;;;;;;;7.75;4.47;;;;;;;19.69;46.54;93769.91;4884222;29;20129;-54
2022/11/08 10:43:06;;;;;;;7.10;4.20;;;;;;;19.83;43.46;93766.38;4897168;29;20071;-53
2022/11/08 10:45:35;;;;;;;7.43;3.35;;;;;;;17.83;46.65;93769.41;4878394;29;20334;-56
2022/11/08 10:48:03;;;;;;;7.35;3.20;;;;;;;16.60;49.56;93767.53;4896804;29;20099;-56
2022/11/08 10:50:50;;;;;;;6.47;3.20;;;;;;;15.99;50.83;93772.66;4879641;29;20438;-60
2022/11/08 10:53:24;;;;;;;6.72;3.30;;;;;;;15.89;51.86;93769.09;4895597;29;20815;-52
2022/11/08 10:55:58;;;;;;;6.38;3.38;;;;;;;16.96;49.07;93768.81;4896053;29;20092;-54
2022/11/08 10:58:29;;;;;;;6.18;3.20;;;;;;;15.56;51.90;93763.97;4896710;29;20079;-56
2022/11/08 11:01:20;;;;;;;5.82;3.08;;;;;;;15.79;51.39;93761.97;4895459;29;21424;-53
2022/11/08 11:03:49;;;;;;;4.90;3.00;;;;;;;15.30;52.21;93754.28;4895378;29;20458;-53
2022/11/08 11:06:28;;;;;;;5.60;3.03;;;;;;;15.24;52.47;93754.06;4895176;29;20049;-52
2022/11/08 11:08:56;;;;;;;6.22;3.30;;;;;;;15.67;51.57;93746.97;4895641;29;20642;-54
2022/11/08 11:11:26;;;;;;;7.20;3.60;;;;;;;14.80;53.17;93750.50;4896351;29;20044;-54
2022/11/08 11:14:13;;;;;;;6.47;3.15;;;;;;;14.25;54.90;93745.94;4895749;29;20508;-55
2022/11/08 11:16:56;;;;;;;5.53;3.50;;;;;;;13.88;56.61;93755.75;4895510;29;20075;-52
2022/11/08 11:19:24;;;;;;;5.95;3.83;;;;;;;14.35;55.66;93766.91;4879271;29;20041;-56
2022/11/08 11:22:03;;;;;;;6.60;3.78;;;;;;;14.03;56.36;93761.63;4879004;29;20461;-53
2022/11/08 11:24:31;;;;;;;9.73;5.32;;;;;;;14.13;56.79;93757.75;4895767;29;20405;-56
2022/11/08 11:27:17;;;;;;;7.20;4.10;;;;;;;13.76;57.92;93760.06;4896202;29;20048;-54
2022/11/08 11:29:44;;;;;;;8.67;4.60;;;;;;;13.50;58.56;93751.78;4895337;29;20250;-55
2022/11/08 11:32:32;;;;;;;8.25;4.35;;;;;;;13.66;58.95;93744.59;4879158;29;20108;-55
2022/11/08 11:35:01;;;;;;;9.57;5.80;;;;;;;13.91;58.87;93738.34;4878464;29;21719;-54
2022/11/08 11:37:44;;;;;;;6.57;3.47;;;;;;;14.01;57.28;93739.22;4895853;29;20052;-51
2022/11/08 11:40:42;;;;;;;7.57;3.70;;;;;;;14.22;56.02;93723.97;4884153;29;20765;-53
2022/11/08 11:43:18;;;;;;;5.67;2.90;;;;;;;13.93;56.32;93724.88;4876269;29;20049;-56
2022/11/08 11:46:08;;;;;;;7.20;3.80;;;;;;;14.19;56.01;93722.88;4859766;29;20104;-53
2022/11/08 11:48:41;;;;;;;6.55;3.72;;;;;;;14.19;55.94;93718.13;4867638;29;20049;-55
2022/11/08 11:51:09;;;;;;;6.28;3.38;;;;;;;14.65;55.02;93717.84;4876897;29;20104;-55
2022/11/08 11:53:37;;;;;;;5.68;3.08;;;;;;;14.39;54.21;93711.56;4876213;29;20124;-54
2022/11/08 11:56:18;;;;;;;7.50;3.00;;;;;;;14.92;52.61;93706.22;4877271;29;20478;-51
2022/11/08 11:59:03;;;;;;;5.05;2.58;;;;;;;14.56;52.83;93701.16;4876042;29;20056;-54